createdAt,value
2022-12-26T00:00:23.059Z,-1.72
2022-12-26T00:01:25.704Z,-1.74
2022-12-26T00:02:27.675Z,-1.61
2022-12-26T00:03:30.817Z,-1.48
2022-12-26T00:04:50.994Z,-1.56
2022-12-26T00:05:54.448Z,-1.46
2022-12-26T00:06:56.285Z,-1.55
2022-12-26T00:07:58.184Z,-1.59
2022-12-26T00:09:01.674Z,-1.52
2022-12-26T00:10:06.353Z,-1.55
2022-12-26T00:11:08.144Z,-1.63
2022-12-26T00:12:09.935Z,-1.66
2022-12-26T00:13:38.207Z,-1.53
2022-12-26T00:14:33.600Z,-1.58
2022-12-26T00:15:35.737Z,-1.55
2022-12-26T00:16:37.843Z,-1.71
2022-12-26T00:17:39.766Z,-1.71
2022-12-26T00:18:42.122Z,-1.59
2022-12-26T00:19:44.027Z,-1.69
2022-12-26T00:20:46.013Z,-1.74
2022-12-26T00:21:47.832Z,-1.73
2022-12-26T00:22:49.676Z,-1.82
2022-12-26T00:23:57.632Z,-1.76
2022-12-26T00:25:00.980Z,-1.80
2022-12-26T00:26:13.220Z,-1.74
2022-12-26T00:27:15.467Z,-1.82
2022-12-26T00:28:17.290Z,-1.85
2022-12-26T00:29:19.384Z,-1.82
2022-12-26T00:30:21.233Z,-1.78
2022-12-26T00:31:25.147Z,-1.86
2022-12-26T00:32:27.392Z,-1.82
2022-12-26T00:33:29.175Z,-1.79
2022-12-26T00:34:31.091Z,-1.75
2022-12-26T00:35:32.971Z,-1.87
2022-12-26T00:36:34.802Z,-1.75
2022-12-26T00:37:36.837Z,-1.79
2022-12-26T00:38:39.375Z,-1.77
2022-12-26T00:39:41.251Z,-1.77
2022-12-26T00:40:45.109Z,-1.80
2022-12-26T00:41:46.984Z,-1.81
2022-12-26T00:42:48.745Z,-1.77
2022-12-26T00:43:51.039Z,-1.77
2022-12-26T00:44:52.873Z,-1.76
2022-12-26T00:45:54.706Z,-1.74
2022-12-26T00:46:56.751Z,-1.80
2022-12-26T00:47:59.787Z,-1.76
2022-12-26T00:49:01.736Z,-1.66
2022-12-26T00:50:12.810Z,-1.74
2022-12-26T00:51:18.183Z,-1.71
2022-12-26T00:52:20.336Z,-1.68
2022-12-26T00:53:23.001Z,-1.66
2022-12-26T00:54:24.972Z,-1.51
2022-12-26T00:55:26.876Z,-1.48
2022-12-26T00:56:28.827Z,-1.63
2022-12-26T00:57:30.675Z,-1.55
2022-12-26T00:58:32.705Z,-1.58
2022-12-26T00:59:34.636Z,-1.44
2022-12-26T01:00:41.992Z,-1.52
2022-12-26T01:01:44.022Z,-1.61
2022-12-26T01:02:46.386Z,-1.66
2022-12-26T01:03:49.102Z,-1.63
2022-12-26T01:04:50.942Z,-1.63
2022-12-26T01:05:52.840Z,-1.62
2022-12-26T01:06:54.700Z,-1.68
2022-12-26T01:08:23.584Z,-1.68
2022-12-26T01:09:18.415Z,-1.63
2022-12-26T01:10:20.298Z,-1.55
2022-12-26T01:11:40.652Z,-1.59
2022-12-26T01:12:42.769Z,-1.48
2022-12-26T01:13:44.604Z,-1.63
2022-12-26T01:14:47.107Z,-1.61
2022-12-26T01:15:53.109Z,-1.64
2022-12-26T01:16:55.109Z,-1.57
2022-12-26T01:17:58.411Z,-1.67
2022-12-26T01:19:00.256Z,-1.66
2022-12-26T01:20:04.307Z,-1.74
2022-12-26T01:21:08.806Z,-1.67
2022-12-26T01:22:10.731Z,-1.66
2022-12-26T01:23:12.836Z,-1.63
2022-12-26T01:24:14.992Z,-1.70
2022-12-26T01:25:17.871Z,-1.66
2022-12-26T01:26:20.399Z,-1.73
2022-12-26T01:27:23.075Z,-1.75
2022-12-26T01:28:24.908Z,-1.74
2022-12-26T01:29:26.994Z,-1.69
2022-12-26T01:30:28.986Z,-1.74
2022-12-26T01:31:30.914Z,-1.68
2022-12-26T01:32:35.025Z,-1.57
2022-12-26T01:33:37.150Z,-1.48
2022-12-26T01:34:39.085Z,-1.60
2022-12-26T01:35:48.707Z,-1.61
2022-12-26T01:36:52.020Z,-1.62
2022-12-26T01:37:54.328Z,-1.67
2022-12-26T01:38:56.258Z,-1.59
2022-12-26T01:39:58.102Z,-1.66
2022-12-26T01:41:19.866Z,-1.48
2022-12-26T01:42:23.384Z,-1.53
2022-12-26T01:43:26.180Z,-1.59
2022-12-26T01:44:46.976Z,-1.49
2022-12-26T01:45:50.962Z,-1.48
2022-12-26T01:46:53.150Z,-1.39
2022-12-26T01:47:54.998Z,-1.27
2022-12-26T01:48:59.709Z,-1.19
2022-12-26T01:50:01.961Z,-1.24
2022-12-26T01:51:06.532Z,-1.28
2022-12-26T01:52:10.000Z,-1.33
2022-12-26T01:53:11.805Z,-1.27
2022-12-26T01:54:40.219Z,-1.41
2022-12-26T01:55:37.094Z,-1.47
2022-12-26T01:56:41.977Z,-1.25
2022-12-26T01:57:50.329Z,-1.27
2022-12-26T01:58:58.632Z,-1.29
2022-12-26T02:00:01.744Z,-1.32
2022-12-26T02:01:05.544Z,-1.36
2022-12-26T02:02:08.399Z,-1.42
2022-12-26T02:03:29.607Z,-1.41
2022-12-26T02:04:55.934Z,-1.50
2022-12-26T02:06:00.103Z,-1.44
2022-12-26T02:07:03.571Z,-1.65
2022-12-26T02:08:17.143Z,-1.66
2022-12-26T02:09:19.839Z,-1.67
2022-12-26T02:10:23.695Z,-1.50
2022-12-26T02:11:32.657Z,-1.60
2022-12-26T02:12:39.135Z,-1.56
2022-12-26T02:14:02.080Z,-1.63
2022-12-26T02:15:05.507Z,-1.66
2022-12-26T02:16:09.191Z,-1.65
2022-12-26T02:17:11.191Z,-1.65
2022-12-26T02:18:13.101Z,-1.75
2022-12-26T02:19:38.098Z,-1.73
2022-12-26T02:20:45.797Z,-1.74
2022-12-26T02:21:47.584Z,-1.73
2022-12-26T02:23:05.332Z,-1.72
2022-12-26T02:24:25.655Z,-1.73
2022-12-26T02:25:36.237Z,-1.73
2022-12-26T02:26:41.033Z,-1.77
2022-12-26T02:27:51.877Z,-1.79
2022-12-26T02:28:59.676Z,-1.73
2022-12-26T02:30:06.216Z,-1.84
2022-12-26T02:31:11.564Z,-1.81
2022-12-26T02:32:29.524Z,-1.73
2022-12-26T02:33:44.450Z,-1.78
2022-12-26T02:34:54.606Z,-1.73
2022-12-26T02:36:22.463Z,-1.74
2022-12-26T02:37:39.826Z,-1.75
2022-12-26T02:38:53.272Z,-1.82
2022-12-26T02:40:10.064Z,-1.75
2022-12-26T02:41:15.014Z,-1.82
2022-12-26T02:42:24.783Z,-1.84
2022-12-26T02:43:46.558Z,-1.78
2022-12-26T02:45:17.577Z,-1.88
2022-12-26T02:46:43.779Z,-1.89
2022-12-26T02:47:56.231Z,-1.88
2022-12-26T02:49:04.363Z,-1.95
2022-12-26T02:50:24.611Z,-1.88
2022-12-26T02:52:03.696Z,-1.80
2022-12-26T02:53:44.540Z,-1.95
2022-12-26T02:55:10.727Z,-1.87
2022-12-26T02:56:50.207Z,-1.60
2022-12-26T02:58:20.617Z,-1.73
2022-12-26T02:59:53.913Z,-1.65
2022-12-26T03:01:19.677Z,-1.65
2022-12-26T03:02:47.267Z,-1.62
2022-12-26T03:04:09.895Z,-1.64
2022-12-26T03:05:34.115Z,-1.64
2022-12-26T03:06:56.828Z,-1.60
2022-12-26T03:08:18.427Z,-1.74
2022-12-26T03:09:42.531Z,-1.68
2022-12-26T03:11:03.228Z,-1.83
2022-12-26T03:12:26.769Z,-1.71
2022-12-26T03:13:33.445Z,-1.56
2022-12-26T03:14:58.211Z,-1.71
2022-12-26T03:16:23.317Z,-1.70
2022-12-26T03:17:45.825Z,-1.78
2022-12-26T03:18:56.884Z,-1.72
2022-12-26T03:20:02.409Z,-1.61
2022-12-26T03:21:05.946Z,-1.69
2022-12-26T03:22:29.480Z,-1.68
2022-12-26T03:23:32.114Z,-1.55
2022-12-26T03:24:53.968Z,-1.37
2022-12-26T03:26:15.928Z,-1.36
2022-12-26T03:27:17.863Z,-1.63
2022-12-26T03:28:19.828Z,-1.62
2022-12-26T03:29:42.239Z,-1.49
2022-12-26T03:30:50.576Z,-1.42
2022-12-26T03:31:52.609Z,-1.55
2022-12-26T03:32:58.137Z,-1.65
2022-12-26T03:34:18.596Z,-1.70
2022-12-26T03:35:20.750Z,-1.61
2022-12-26T03:36:35.526Z,-1.59
2022-12-26T03:37:52.984Z,-1.51
2022-12-26T03:39:18.193Z,-1.40
2022-12-26T03:40:51.904Z,-1.48
2022-12-26T03:42:18.663Z,-1.71
2022-12-26T03:43:42.130Z,-1.62
2022-12-26T03:45:19.112Z,-1.67
2022-12-26T03:46:55.343Z,-1.78
2022-12-26T03:48:38.975Z,-1.79
2022-12-26T03:50:03.593Z,-1.60
2022-12-26T03:51:30.197Z,-1.67
2022-12-26T03:53:16.328Z,-1.69
2022-12-26T03:54:47.102Z,-1.73
2022-12-26T03:56:15.259Z,-1.60
2022-12-26T03:57:37.561Z,-1.59
2022-12-26T03:59:04.127Z,-1.57
2022-12-26T04:00:27.377Z,-1.67
2022-12-26T04:01:49.067Z,-1.90
2022-12-26T04:03:11.479Z,-1.94
2022-12-26T04:04:34.156Z,-1.88
2022-12-26T04:05:56.257Z,-1.75
2022-12-26T04:07:21.019Z,-1.91
2022-12-26T04:08:47.787Z,-1.96
2022-12-26T04:10:11.576Z,-1.99
2022-12-26T04:11:37.557Z,-2.03
2022-12-26T04:12:59.514Z,-1.94
2022-12-26T04:14:27.891Z,-2.01
2022-12-26T04:15:58.171Z,-1.98
2022-12-26T04:17:31.486Z,-1.81
2022-12-26T04:19:12.413Z,-1.76
2022-12-26T04:20:33.556Z,-1.93
2022-12-26T04:21:59.240Z,-1.99
2022-12-26T04:23:19.417Z,-1.97
2022-12-26T04:24:43.137Z,-2.07
2022-12-26T04:26:23.977Z,-2.03
2022-12-26T04:27:47.158Z,-1.94
2022-12-26T04:29:07.840Z,-1.90
2022-12-26T04:30:28.643Z,-1.81
2022-12-26T04:32:03.842Z,-1.78
2022-12-26T04:33:30.303Z,-1.67
2022-12-26T04:35:01.789Z,-1.76
2022-12-26T04:36:27.587Z,-1.69
2022-12-26T04:37:49.820Z,-1.74
2022-12-26T04:39:13.977Z,-1.89
2022-12-26T04:40:37.571Z,-1.63
2022-12-26T04:41:59.036Z,-1.80
2022-12-26T04:43:48.041Z,-1.93
2022-12-26T04:45:04.494Z,-1.77
2022-12-26T04:46:25.182Z,-1.81
2022-12-26T04:47:39.207Z,-1.86
2022-12-26T04:51:20.341Z,-2.04
2022-12-26T04:52:51.435Z,-2.04
2022-12-26T04:53:59.232Z,-2.03
2022-12-26T04:55:17.674Z,-1.91
2022-12-26T04:56:24.560Z,-1.92
2022-12-26T04:57:28.800Z,-2.03
2022-12-26T04:58:32.133Z,-1.85
2022-12-26T04:59:35.579Z,-1.98
2022-12-26T05:01:14.527Z,-2.04
2022-12-26T05:02:41.478Z,-1.93
2022-12-26T05:04:08.502Z,-1.91
2022-12-26T05:05:51.520Z,-1.91
2022-12-26T05:07:31.760Z,-1.97
2022-12-26T05:09:35.984Z,-2.06
2022-12-26T05:10:43.093Z,-2.00
2022-12-26T05:12:09.857Z,-2.06
2022-12-26T05:13:47.426Z,-2.11
2022-12-26T05:15:00.995Z,-2.26
2022-12-26T05:18:44.957Z,-2.19
2022-12-26T05:20:06.758Z,-2.35
2022-12-26T05:21:35.695Z,-2.22
2022-12-26T05:22:58.589Z,-2.36
2022-12-26T05:24:21.214Z,-2.34
2022-12-26T05:25:44.381Z,-2.21
2022-12-26T05:27:05.168Z,-1.98
2022-12-26T05:28:28.340Z,-2.18
2022-12-26T05:29:35.290Z,-2.18
2022-12-26T05:30:37.889Z,-2.19
2022-12-26T05:31:40.970Z,-2.21
2022-12-26T05:33:03.150Z,-2.19
2022-12-26T05:34:13.022Z,-2.18
2022-12-26T05:35:15.745Z,-2.12
2022-12-26T05:36:19.184Z,-2.09
2022-12-26T05:37:21.321Z,-2.23
2022-12-26T05:38:23.634Z,-2.28
2022-12-26T05:39:28.471Z,-2.43
2022-12-26T05:40:33.452Z,-2.29
2022-12-26T05:41:41.572Z,-2.27
2022-12-26T05:42:47.230Z,-2.32
2022-12-26T05:43:54.488Z,-2.18
2022-12-26T05:44:59.308Z,-2.09
2022-12-26T05:46:01.632Z,-2.25
2022-12-26T05:47:10.320Z,-2.36
2022-12-26T05:48:28.861Z,-2.41
2022-12-26T05:49:35.544Z,-2.18
2022-12-26T05:51:13.722Z,-2.38
2022-12-26T05:52:30.644Z,-2.22
2022-12-26T05:53:40.337Z,-2.31
2022-12-26T05:54:49.833Z,-2.23
2022-12-26T05:55:53.987Z,-2.31
2022-12-26T05:56:58.669Z,-2.24
2022-12-26T05:58:04.231Z,-2.33
2022-12-26T05:59:10.479Z,-2.36
2022-12-26T06:00:22.276Z,-2.39
2022-12-26T06:01:31.502Z,-2.33
2022-12-26T06:04:09.509Z,-2.36
2022-12-26T06:05:41.613Z,-2.37
2022-12-26T06:13:48.666Z,-2.36
2022-12-26T06:17:13.350Z,-2.29
2022-12-26T06:18:24.867Z,-2.25
2022-12-26T06:19:35.098Z,-2.34
2022-12-26T06:20:41.936Z,-2.37
2022-12-26T06:21:48.370Z,-2.28
2022-12-26T06:23:11.785Z,-2.26
2022-12-26T06:24:19.298Z,-2.35
2022-12-26T06:25:24.473Z,-2.29
2022-12-26T06:33:36.890Z,-2.19
2022-12-26T06:36:56.226Z,-2.07
2022-12-26T06:40:19.983Z,-1.96
2022-12-26T06:45:01.284Z,-2.12
2022-12-26T06:47:54.486Z,-2.17
2022-12-26T06:48:57.109Z,-2.10
2022-12-26T06:49:59.340Z,-2.21
2022-12-26T06:51:25.615Z,-2.17
2022-12-26T06:52:30.127Z,-2.12
2022-12-26T06:53:49.062Z,-2.18
2022-12-26T06:56:47.021Z,-2.15
2022-12-26T06:57:55.036Z,-2.19
2022-12-26T06:59:09.223Z,-2.16
2022-12-26T07:00:13.008Z,-2.04
2022-12-26T07:01:17.826Z,-2.16
2022-12-26T07:02:20.640Z,-2.06
2022-12-26T07:03:26.234Z,-2.06
2022-12-26T07:04:28.419Z,-2.19
2022-12-26T07:05:30.747Z,-2.05
2022-12-26T07:06:35.399Z,-2.01
2022-12-26T07:07:39.508Z,-2.09
2022-12-26T07:08:43.752Z,-2.11
2022-12-26T07:09:46.475Z,-2.12
2022-12-26T07:10:48.643Z,-2.13
2022-12-26T07:11:56.570Z,-1.88
2022-12-26T07:12:58.880Z,-2.09
2022-12-26T07:14:02.493Z,-1.87
2022-12-26T07:15:05.648Z,-2.12
2022-12-26T07:16:07.685Z,-2.14
2022-12-26T07:17:11.389Z,-2.07
2022-12-26T07:18:13.556Z,-2.03
2022-12-26T07:19:16.048Z,-2.10
2022-12-26T07:20:19.000Z,-2.24
2022-12-26T07:21:21.375Z,-2.10
2022-12-26T07:22:25.721Z,-2.02
2022-12-26T07:23:27.665Z,-2.12
2022-12-26T07:24:29.777Z,-2.01
2022-12-26T07:25:32.592Z,-2.01
2022-12-26T07:26:34.835Z,-2.06
2022-12-26T07:27:41.126Z,-2.01
2022-12-26T07:28:43.192Z,-1.99
2022-12-26T07:29:46.798Z,-2.01
2022-12-26T07:30:51.414Z,-1.96
2022-12-26T07:31:57.030Z,-1.92
2022-12-26T07:32:59.181Z,-2.12
2022-12-26T07:34:01.746Z,-2.22
2022-12-26T07:35:03.977Z,-2.26
2022-12-26T07:36:08.000Z,-2.26
2022-12-26T07:37:11.094Z,-2.25
2022-12-26T07:38:13.700Z,-2.32
2022-12-26T07:39:15.983Z,-2.18
2022-12-26T07:40:21.319Z,-2.16
2022-12-26T07:41:42.484Z,-2.19
2022-12-26T07:42:45.746Z,-1.99
2022-12-26T07:43:47.923Z,-1.89
2022-12-26T07:44:51.125Z,-1.91
2022-12-26T07:45:53.412Z,-1.86
2022-12-26T07:46:56.471Z,-1.99
2022-12-26T07:48:03.427Z,-1.89
2022-12-26T07:49:07.467Z,-1.96
2022-12-26T07:50:11.622Z,-1.86
2022-12-26T07:51:13.798Z,-1.81
2022-12-26T07:52:16.153Z,-1.90
2022-12-26T07:53:20.839Z,-1.80
2022-12-26T07:54:24.490Z,-1.76
2022-12-26T07:55:26.749Z,-1.82
2022-12-26T07:56:29.112Z,-1.79
2022-12-26T07:57:48.164Z,-1.77
2022-12-26T07:58:52.291Z,-1.70
2022-12-26T07:59:54.697Z,-1.59
2022-12-26T08:01:00.940Z,-1.56
2022-12-26T08:02:05.321Z,-1.72
2022-12-26T08:03:09.677Z,-1.69
2022-12-26T08:04:12.776Z,-1.71
2022-12-26T08:05:14.988Z,-1.58
2022-12-26T08:06:18.128Z,-1.54
2022-12-26T08:07:23.108Z,-1.75
2022-12-26T08:08:24.985Z,-1.65
2022-12-26T08:09:27.013Z,-1.72
2022-12-26T08:10:30.027Z,-1.65
2022-12-26T08:11:35.082Z,-1.54
2022-12-26T08:12:38.529Z,-1.53
2022-12-26T08:13:40.781Z,-1.42
2022-12-26T08:14:43.165Z,-1.52
2022-12-26T08:15:45.646Z,-1.51
2022-12-26T08:16:53.160Z,-1.73
2022-12-26T08:17:56.022Z,-1.70
2022-12-26T08:19:03.311Z,-1.63
2022-12-26T08:20:06.179Z,-1.79
2022-12-26T08:21:09.360Z,-1.75
2022-12-26T08:22:11.617Z,-1.93
2022-12-26T08:23:14.853Z,-1.82
2022-12-26T08:24:17.450Z,-1.87
2022-12-26T08:25:22.200Z,-1.78
2022-12-26T08:26:25.142Z,-1.66
2022-12-26T08:27:27.663Z,-1.44
2022-12-26T08:28:29.941Z,-1.61
2022-12-26T08:29:37.048Z,-1.63
2022-12-26T08:30:57.455Z,-1.49
2022-12-26T08:33:35.070Z,-1.64
2022-12-26T08:34:40.073Z,-1.57
2022-12-26T09:08:14.648Z,-1.42
2022-12-26T09:09:19.182Z,-1.33
2022-12-26T09:10:25.693Z,-1.43
2022-12-26T09:11:29.083Z,-1.46
2022-12-26T09:12:34.024Z,-1.58
2022-12-26T09:13:54.015Z,-1.43
2022-12-26T09:15:03.146Z,-1.56
2022-12-26T09:16:11.345Z,-1.55
2022-12-26T09:17:14.294Z,-1.62
2022-12-26T09:18:19.069Z,-1.55
2022-12-26T09:19:23.849Z,-1.62
2022-12-26T09:21:03.943Z,-1.62
2022-12-26T09:22:28.283Z,-1.41
2022-12-26T09:23:39.404Z,-1.32
2022-12-26T09:24:41.982Z,-1.43
2022-12-26T09:25:44.128Z,-1.56
2022-12-26T09:26:47.390Z,-1.49
2022-12-26T09:27:54.212Z,-1.34
2022-12-26T09:29:03.043Z,-1.39
2022-12-26T09:30:05.918Z,-1.48
2022-12-26T09:31:16.793Z,-1.28
2022-12-26T09:32:28.111Z,-1.48
2022-12-26T09:34:50.978Z,-1.69
2022-12-26T09:35:57.065Z,-1.63
2022-12-26T09:37:04.909Z,-1.45
2022-12-26T09:38:11.865Z,-1.57
2022-12-26T09:39:16.508Z,-1.56
2022-12-26T09:40:24.306Z,-1.63
2022-12-26T09:41:33.852Z,-1.57
2022-12-26T09:42:54.621Z,-1.59
2022-12-26T09:44:29.647Z,-1.51
2022-12-26T09:45:42.299Z,-1.65
2022-12-26T09:46:58.989Z,-1.56
2022-12-26T09:48:21.103Z,-1.48
2022-12-26T09:49:28.358Z,-1.55
2022-12-26T09:50:42.951Z,-1.45
2022-12-26T09:51:58.990Z,-1.70
2022-12-26T09:53:07.239Z,-1.75
2022-12-26T09:54:15.384Z,-1.71
2022-12-26T09:55:29.829Z,-1.88
2022-12-26T09:57:01.691Z,-1.80
2022-12-26T09:58:02.784Z,-1.67
2022-12-26T09:59:14.184Z,-1.64
2022-12-26T10:00:20.525Z,-1.77
2022-12-26T10:01:28.445Z,-1.63
2022-12-26T10:02:30.854Z,-1.59
2022-12-26T10:03:38.071Z,-1.53
2022-12-26T10:04:41.124Z,-1.61
2022-12-26T10:06:01.173Z,-1.70
2022-12-26T10:07:22.387Z,-1.50
2022-12-26T10:08:41.564Z,-1.56
2022-12-26T10:09:51.922Z,-1.53
2022-12-26T10:10:56.835Z,-1.42
2022-12-26T10:12:05.763Z,-1.40
2022-12-26T10:13:36.018Z,-1.16
2022-12-26T10:14:51.280Z,-1.30
2022-12-26T10:15:58.332Z,-1.42
2022-12-26T10:17:17.593Z,-1.49
2022-12-26T10:18:23.226Z,-1.46
2022-12-26T10:19:44.825Z,-1.53
2022-12-26T10:21:00.410Z,-1.39
2022-12-26T10:22:09.699Z,-1.46
2022-12-26T10:23:15.177Z,-1.53
2022-12-26T10:24:20.458Z,-1.37
2022-12-26T10:25:33.731Z,-1.39
2022-12-26T10:26:41.941Z,-1.31
2022-12-26T10:27:46.169Z,-1.54
2022-12-26T10:29:15.146Z,-1.42
2022-12-26T10:30:36.562Z,-1.42
2022-12-26T10:31:44.191Z,-1.27
2022-12-26T10:32:49.617Z,-1.37
2022-12-26T10:33:52.316Z,-1.45
2022-12-26T10:34:55.042Z,-1.50
2022-12-26T10:35:58.263Z,-1.35
2022-12-26T10:37:04.486Z,-1.15
2022-12-26T10:38:27.911Z,-1.27
2022-12-26T10:39:40.203Z,-1.27
2022-12-26T10:40:48.088Z,-1.36
2022-12-26T10:41:53.574Z,-1.48
2022-12-26T10:42:58.682Z,-1.61
2022-12-26T10:44:01.679Z,-1.49
2022-12-26T10:45:14.053Z,-1.53
2022-12-26T10:46:38.327Z,-1.60
2022-12-26T10:47:42.285Z,-1.51
2022-12-26T10:48:44.676Z,-1.61
2022-12-26T10:49:50.801Z,-1.48
2022-12-26T10:50:55.978Z,-1.59
2022-12-26T10:52:00.985Z,-1.36
2022-12-26T10:53:09.047Z,-1.58
2022-12-26T10:54:18.155Z,-1.61
2022-12-26T10:55:31.502Z,-1.63
2022-12-26T10:56:34.354Z,-1.30
2022-12-26T10:57:37.206Z,-1.33
2022-12-26T10:58:40.291Z,-1.40
2022-12-26T10:59:46.857Z,-1.22
2022-12-26T11:00:49.686Z,-1.22
2022-12-26T11:01:59.794Z,-1.32
2022-12-26T11:03:10.183Z,-1.53
2022-12-26T11:04:31.428Z,-1.61
2022-12-26T11:06:10.859Z,-1.64
2022-12-26T11:07:22.533Z,-1.55
2022-12-26T11:08:55.321Z,-1.84
2022-12-26T11:10:19.848Z,-1.65
2022-12-26T11:11:43.469Z,-1.54
2022-12-26T11:17:28.942Z,-1.90
2022-12-26T11:18:54.341Z,-1.49
2022-12-26T11:20:16.242Z,-1.84
2022-12-26T11:21:18.173Z,-1.98
2022-12-26T11:22:20.652Z,-1.91
2022-12-26T11:23:33.279Z,-2.10
2022-12-26T11:24:36.252Z,-1.77
2022-12-26T11:25:47.994Z,-1.72
2022-12-26T11:26:52.800Z,-1.98
2022-12-26T11:27:59.167Z,-1.77
2022-12-26T11:29:07.937Z,-1.64
2022-12-26T11:30:18.740Z,-1.82
2022-12-26T11:31:25.350Z,-1.80
2022-12-26T11:32:27.829Z,-1.68
2022-12-26T11:33:30.013Z,-1.79
2022-12-26T11:34:34.769Z,-1.69
2022-12-26T11:35:38.072Z,-1.89
2022-12-26T11:36:45.595Z,-1.65
2022-12-26T11:37:51.088Z,-1.71
2022-12-26T11:39:00.669Z,-1.68
2022-12-26T11:40:04.935Z,-1.64
2022-12-26T11:41:36.040Z,-1.68
2022-12-26T11:42:38.049Z,-1.81
2022-12-26T11:43:39.850Z,-1.60
2022-12-26T11:44:42.735Z,-1.77
2022-12-26T11:45:50.321Z,-1.69
2022-12-26T11:46:52.572Z,-1.79
2022-12-26T11:47:56.330Z,-1.57
2022-12-26T11:48:58.713Z,-1.66
2022-12-26T11:50:12.231Z,-1.88
2022-12-26T11:51:15.175Z,-1.79
2022-12-26T11:52:38.018Z,-1.59
2022-12-26T11:53:40.071Z,-1.61
2022-12-26T11:54:49.406Z,-1.56
2022-12-26T11:56:07.293Z,-1.72
2022-12-26T11:57:15.506Z,-1.79
2022-12-26T11:58:25.137Z,-1.75
2022-12-26T11:59:26.952Z,-1.92
2022-12-26T12:00:29.043Z,-2.05
2022-12-26T12:01:30.932Z,-2.05
2022-12-26T12:02:33.356Z,-1.97
2022-12-26T12:03:47.000Z,-1.84
2022-12-26T12:04:52.494Z,-2.01
2022-12-26T12:06:12.695Z,-1.94
2022-12-26T12:07:37.077Z,-2.07
2022-12-26T12:08:48.209Z,-2.13
2022-12-26T12:10:03.070Z,-2.05
2022-12-26T12:11:05.044Z,-2.03
2022-12-26T12:12:16.125Z,-2.01
2022-12-26T12:13:20.702Z,-1.89
2022-12-26T12:14:34.652Z,-2.08
2022-12-26T12:15:55.402Z,-2.09
2022-12-26T12:17:03.855Z,-2.26
2022-12-26T12:18:10.839Z,-2.02
2022-12-26T12:19:24.782Z,-1.93
2022-12-26T12:20:36.459Z,-2.03
2022-12-26T12:21:44.916Z,-1.98
2022-12-26T12:22:46.920Z,-1.89
2022-12-26T12:23:59.985Z,-2.17
2022-12-26T12:25:02.781Z,-2.11
2022-12-26T12:26:12.370Z,-2.11
2022-12-26T12:27:29.503Z,-2.09
2022-12-26T12:28:46.716Z,-2.15
2022-12-26T12:29:48.540Z,-2.10
2022-12-26T12:31:09.655Z,-1.89
2022-12-26T12:32:18.591Z,-2.06
2022-12-26T12:33:27.317Z,-2.14
2022-12-26T12:34:35.181Z,-2.22
2022-12-26T12:35:45.951Z,-2.16
2022-12-26T12:36:54.124Z,-2.26
2022-12-26T12:37:58.695Z,-2.33
2022-12-26T12:39:19.632Z,-2.40
2022-12-26T12:40:21.602Z,-2.33
2022-12-26T12:41:24.601Z,-2.29
2022-12-26T12:42:32.256Z,-2.25
2022-12-26T12:43:37.100Z,-2.28
2022-12-26T12:44:42.700Z,-2.37
2022-12-26T12:46:17.119Z,-2.31
2022-12-26T12:47:19.147Z,-2.33
2022-12-26T12:48:39.542Z,-2.27
2022-12-26T12:49:44.196Z,-2.28
2022-12-26T12:50:56.932Z,-2.26
2022-12-26T12:52:17.339Z,-2.31
2022-12-26T12:53:22.313Z,-2.32
2022-12-26T12:54:25.215Z,-2.27
2022-12-26T12:55:29.637Z,-2.44
2022-12-26T12:56:57.096Z,-2.25
2022-12-26T12:58:05.574Z,-2.33
2022-12-26T12:59:18.701Z,-2.32
2022-12-26T13:00:24.085Z,-2.29
2022-12-26T13:01:45.028Z,-2.26
2022-12-26T13:03:06.060Z,-2.33
2022-12-26T13:04:18.713Z,-2.30
2022-12-26T13:05:26.343Z,-2.36
2022-12-26T13:06:34.776Z,-2.42
2022-12-26T13:07:43.427Z,-2.32
2022-12-26T13:08:52.305Z,-2.56
2022-12-26T13:09:58.954Z,-2.47
2022-12-26T13:11:06.681Z,-2.52
2022-12-26T13:12:22.913Z,-2.60
2022-12-26T13:13:29.597Z,-2.54
2022-12-26T13:14:34.519Z,-2.40
2022-12-26T13:15:40.395Z,-2.33
2022-12-26T13:16:44.301Z,-2.30
2022-12-26T13:17:52.237Z,-2.42
2022-12-26T13:18:57.818Z,-2.43
2022-12-26T13:20:18.663Z,-2.63
2022-12-26T13:21:24.749Z,-2.52
2022-12-26T13:22:55.004Z,-2.42
2022-12-26T13:24:19.922Z,-2.47
2022-12-26T13:25:25.109Z,-2.48
2022-12-26T13:26:36.452Z,-2.45
2022-12-26T13:27:45.466Z,-2.40
2022-12-26T13:29:11.140Z,-2.31
2022-12-26T13:30:29.795Z,-2.51
2022-12-26T13:36:07.506Z,-2.37
2022-12-26T13:37:38.013Z,-2.35
2022-12-26T13:39:13.724Z,-2.51
2022-12-26T13:40:25.697Z,-2.50
2022-12-26T13:41:51.727Z,-2.33
2022-12-26T13:43:26.245Z,-2.53
2022-12-26T13:44:31.167Z,-2.44
2022-12-26T13:45:36.050Z,-2.58
2022-12-26T13:46:44.425Z,-2.71
2022-12-26T13:49:36.553Z,-2.58
2022-12-26T13:50:56.693Z,-2.70
2022-12-26T13:52:20.070Z,-2.64
2022-12-26T13:53:45.652Z,-2.85
2022-12-26T13:54:48.940Z,-2.60
2022-12-26T13:56:01.068Z,-2.59
2022-12-26T13:57:18.954Z,-2.65
2022-12-26T13:58:20.918Z,-2.58
2022-12-26T13:59:30.705Z,-2.44
2022-12-26T14:00:44.575Z,-2.58
2022-12-26T14:01:46.713Z,-2.68
2022-12-26T14:03:19.221Z,-2.68
2022-12-26T14:04:25.247Z,-2.50
2022-12-26T14:05:34.070Z,-2.56
2022-12-26T14:06:35.902Z,-2.60
2022-12-26T14:07:55.082Z,-2.59
2022-12-26T14:09:03.211Z,-2.62
2022-12-26T14:10:12.348Z,-2.65
2022-12-26T14:11:20.509Z,-2.56
2022-12-26T14:12:41.076Z,-2.57
2022-12-26T14:13:42.992Z,-2.78
2022-12-26T14:14:52.493Z,-2.86
2022-12-26T14:16:04.773Z,-2.81
2022-12-26T14:17:33.767Z,-2.76
2022-12-26T14:18:41.643Z,-2.79
2022-12-26T14:19:43.702Z,-2.86
2022-12-26T14:20:45.813Z,-2.88
2022-12-26T14:22:06.655Z,-2.84
2022-12-26T14:23:15.454Z,-2.67
2022-12-26T14:24:26.350Z,-2.55
2022-12-26T14:25:50.752Z,-2.63
2022-12-26T14:26:59.140Z,-2.84
2022-12-26T14:28:10.968Z,-2.77
2022-12-26T14:29:28.484Z,-2.80
2022-12-26T14:30:37.296Z,-2.79
2022-12-26T14:31:43.017Z,-2.79
2022-12-26T14:32:50.933Z,-2.78
2022-12-26T14:33:59.457Z,-2.75
2022-12-26T14:35:04.085Z,-2.88
2022-12-26T14:36:20.967Z,-2.91
2022-12-26T14:37:43.054Z,-2.80
2022-12-26T14:39:08.012Z,-2.80
2022-12-26T14:40:24.433Z,-2.67
2022-12-26T14:41:44.625Z,-2.67
2022-12-26T14:43:10.846Z,-2.62
2022-12-26T14:44:24.915Z,-2.66
2022-12-26T14:45:29.573Z,-2.67
2022-12-26T14:46:51.732Z,-2.72
2022-12-26T14:47:53.869Z,-2.82
2022-12-26T14:48:58.140Z,-2.59
2022-12-26T14:50:19.914Z,-2.81
2022-12-26T14:51:21.748Z,-2.70
2022-12-26T14:52:24.750Z,-2.71
2022-12-26T14:53:29.180Z,-2.82
2022-12-26T14:54:38.151Z,-2.72
2022-12-26T14:55:45.854Z,-2.76
2022-12-26T14:56:48.733Z,-2.76
2022-12-26T14:57:50.939Z,-2.83
2022-12-26T14:58:53.276Z,-2.84
2022-12-26T15:00:24.299Z,-2.76
2022-12-26T15:01:26.312Z,-2.85
2022-12-26T15:02:33.499Z,-2.91
2022-12-26T15:03:55.136Z,-2.75
2022-12-26T15:04:56.992Z,-2.75
2022-12-26T15:06:13.308Z,-2.74
2022-12-26T15:07:20.309Z,-2.79
2022-12-26T15:08:45.377Z,-2.67
2022-12-26T15:10:05.663Z,-2.53
2022-12-26T15:11:27.750Z,-2.45
2022-12-26T15:12:50.425Z,-2.54
2022-12-26T15:14:14.153Z,-2.41
2022-12-26T15:15:41.915Z,-2.58
2022-12-26T15:16:57.300Z,-2.65
2022-12-26T15:18:05.445Z,-2.71
2022-12-26T15:19:10.712Z,-2.65
2022-12-26T15:20:30.714Z,-2.63
2022-12-26T15:21:32.707Z,-2.62
2022-12-26T15:22:34.542Z,-2.77
2022-12-26T15:23:42.177Z,-2.76
2022-12-26T15:26:27.437Z,-2.69
2022-12-26T15:27:35.965Z,-3.01
2022-12-26T15:28:38.033Z,-2.91
2022-12-26T15:29:58.719Z,-2.86
2022-12-26T15:31:16.258Z,-3.11
2022-12-26T15:32:28.354Z,-2.95
2022-12-26T15:33:40.490Z,-2.99
2022-12-26T15:35:00.990Z,-2.97
2022-12-26T15:36:06.323Z,-2.97
2022-12-26T15:37:17.168Z,-3.02
2022-12-26T15:38:40.210Z,-3.18
2022-12-26T15:40:08.772Z,-3.04
2022-12-26T15:41:15.075Z,-3.07
2022-12-26T15:42:25.539Z,-3.09
2022-12-26T15:43:35.993Z,-3.04
2022-12-26T15:44:43.593Z,-3.03
2022-12-26T15:45:55.814Z,-3.04
2022-12-26T15:47:20.971Z,-2.94
2022-12-26T15:48:41.576Z,-2.90
2022-12-26T15:49:46.259Z,-2.90
2022-12-26T15:51:12.631Z,-3.02
2022-12-26T15:52:14.478Z,-2.95
2022-12-26T15:53:29.676Z,-3.08
2022-12-26T15:54:31.533Z,-2.96
2022-12-26T15:55:39.185Z,-2.89
2022-12-26T15:56:42.490Z,-2.89
2022-12-26T15:57:55.505Z,-2.87
2022-12-26T15:58:57.471Z,-2.93
2022-12-26T16:00:10.855Z,-2.90
2022-12-26T16:01:33.864Z,-2.83
2022-12-26T16:02:38.878Z,-2.81
2022-12-26T16:03:40.948Z,-2.76
2022-12-26T16:04:49.839Z,-2.83
2022-12-26T16:05:54.642Z,-2.80
2022-12-26T16:07:06.342Z,-2.89
2022-12-26T16:08:22.843Z,-2.84
2022-12-26T16:09:35.686Z,-2.84
2022-12-26T16:10:37.892Z,-2.83
2022-12-26T16:11:42.858Z,-2.86
2022-12-26T16:12:57.124Z,-2.84
2022-12-26T16:14:04.953Z,-2.70
2022-12-26T16:15:09.727Z,-2.88
2022-12-26T16:16:11.806Z,-2.88
2022-12-26T16:17:13.704Z,-2.79
2022-12-26T16:18:17.023Z,-2.83
2022-12-26T16:19:21.162Z,-2.89
2022-12-26T16:20:44.660Z,-2.93
2022-12-26T16:22:08.458Z,-2.88
2022-12-26T16:23:29.833Z,-2.81
2022-12-26T16:24:32.994Z,-2.85
2022-12-26T16:25:37.952Z,-2.83
2022-12-26T16:26:44.418Z,-3.00
2022-12-26T16:27:48.238Z,-2.80
2022-12-26T16:28:50.434Z,-2.81
2022-12-26T16:29:52.363Z,-2.64
2022-12-26T16:30:56.281Z,-2.83
2022-12-26T16:32:09.438Z,-2.81
2022-12-26T16:33:15.073Z,-2.85
2022-12-26T16:34:25.504Z,-2.89
2022-12-26T16:35:38.271Z,-2.84